sensor_id;sensor_type;location;lat;lon;timestamp;temperature;humidity
3408;DHT22;1717;50.240;8.406;2023-06-14T00:01:18;19.40;45.60
3408;DHT22;1717;50.240;8.406;2023-06-14T00:03:47;19.40;45.60
3408;DHT22;1717;50.240;8.406;2023-06-14T00:06:16;19.30;45.70
3408;DHT22;1717;50.240;8.406;2023-06-14T00:08:43;19.30;45.80
3408;DHT22;1717;50.240;8.406;2023-06-14T00:11:09;19.30;45.80
3408;DHT22;1717;50.240;8.406;2023-06-14T00:13:36;19.30;45.80
3408;DHT22;1717;50.240;8.406;2023-06-14T00:16:03;19.30;45.90
3408;DHT22;1717;50.240;8.406;2023-06-14T00:18:30;19.30;45.90
3408;DHT22;1717;50.240;8.406;2023-06-14T00:20:58;19.20;46.10
3408;DHT22;1717;50.240;8.406;2023-06-14T00:23:26;19.20;46.10
3408;DHT22;1717;50.240;8.406;2023-06-14T00:25:53;19.20;46.00
3408;DHT22;1717;50.240;8.406;2023-06-14T00:28:19;19.20;46.30
3408;DHT22;1717;50.240;8.406;2023-06-14T00:30:46;19.10;46.30
3408;DHT22;1717;50.240;8.406;2023-06-14T00:33:13;19.00;46.20
3408;DHT22;1717;50.240;8.406;2023-06-14T00:35:40;19.00;46.30
3408;DHT22;1717;50.240;8.406;2023-06-14T00:38:07;19.00;46.30
3408;DHT22;1717;50.240;8.406;2023-06-14T00:40:35;18.90;46.40
3408;DHT22;1717;50.240;8.406;2023-06-14T00:43:02;18.90;46.40
3408;DHT22;1717;50.240;8.406;2023-06-14T00:45:29;19.00;46.50
3408;DHT22;1717;50.240;8.406;2023-06-14T00:47:57;18.90;46.60
3408;DHT22;1717;50.240;8.406;2023-06-14T00:50:24;18.90;46.70
3408;DHT22;1717;50.240;8.406;2023-06-14T00:52:51;18.80;46.60
3408;DHT22;1717;50.240;8.406;2023-06-14T00:55:18;18.80;46.60
3408;DHT22;1717;50.240;8.406;2023-06-14T00:57:47;18.80;46.70
3408;DHT22;1717;50.240;8.406;2023-06-14T01:00:15;18.80;46.80
3408;DHT22;1717;50.240;8.406;2023-06-14T01:02:42;18.80;47.00
3408;DHT22;1717;50.240;8.406;2023-06-14T01:05:09;18.70;46.90
3408;DHT22;1717;50.240;8.406;2023-06-14T01:07:46;18.70;46.90
3408;DHT22;1717;50.240;8.406;2023-06-14T01:10:26;18.70;47.00
3408;DHT22;1717;50.240;8.406;2023-06-14T01:12:58;18.60;46.80
3408;DHT22;1717;50.240;8.406;2023-06-14T01:15:30;18.60;47.00
3408;DHT22;1717;50.240;8.406;2023-06-14T01:17:57;18.60;47.10
3408;DHT22;1717;50.240;8.406;2023-06-14T01:20:29;18.60;47.10
3408;DHT22;1717;50.240;8.406;2023-06-14T01:22:57;18.50;47.10
3408;DHT22;1717;50.240;8.406;2023-06-14T01:25:25;18.50;47.20
3408;DHT22;1717;50.240;8.406;2023-06-14T01:27:53;18.50;47.30
3408;DHT22;1717;50.240;8.406;2023-06-14T01:30:23;18.50;47.50
3408;DHT22;1717;50.240;8.406;2023-06-14T01:32:51;18.40;47.50
3408;DHT22;1717;50.240;8.406;2023-06-14T01:35:18;18.40;47.50
3408;DHT22;1717;50.240;8.406;2023-06-14T01:37:47;18.40;47.50
3408;DHT22;1717;50.240;8.406;2023-06-14T01:40:16;18.40;47.70
3408;DHT22;1717;50.240;8.406;2023-06-14T01:42:45;18.30;47.70
3408;DHT22;1717;50.240;8.406;2023-06-14T01:45:12;18.30;47.80
3408;DHT22;1717;50.240;8.406;2023-06-14T01:47:40;18.30;47.90
3408;DHT22;1717;50.240;8.406;2023-06-14T01:50:08;18.40;48.10
3408;DHT22;1717;50.240;8.406;2023-06-14T01:52:36;18.20;47.90
3408;DHT22;1717;50.240;8.406;2023-06-14T01:55:03;18.20;47.90
3408;DHT22;1717;50.240;8.406;2023-06-14T01:57:31;18.20;47.60
3408;DHT22;1717;50.240;8.406;2023-06-14T01:59:58;18.30;48.30
3408;DHT22;1717;50.240;8.406;2023-06-14T02:02:25;18.20;47.80
3408;DHT22;1717;50.240;8.406;2023-06-14T02:04:52;18.20;47.90
3408;DHT22;1717;50.240;8.406;2023-06-14T02:07:22;18.20;47.90
3408;DHT22;1717;50.240;8.406;2023-06-14T02:09:49;18.10;48.10
3408;DHT22;1717;50.240;8.406;2023-06-14T02:12:16;18.10;48.10
3408;DHT22;1717;50.240;8.406;2023-06-14T02:14:44;18.00;48.30
3408;DHT22;1717;50.240;8.406;2023-06-14T02:17:11;18.00;48.40
3408;DHT22;1717;50.240;8.406;2023-06-14T02:19:38;18.00;48.50
3408;DHT22;1717;50.240;8.406;2023-06-14T02:22:05;18.00;48.50
3408;DHT22;1717;50.240;8.406;2023-06-14T02:24:32;17.90;48.50
3408;DHT22;1717;50.240;8.406;2023-06-14T02:26:59;17.90;48.50
3408;DHT22;1717;50.240;8.406;2023-06-14T02:29:25;17.90;48.60
3408;DHT22;1717;50.240;8.406;2023-06-14T02:31:54;17.90;48.60
3408;DHT22;1717;50.240;8.406;2023-06-14T02:34:20;17.90;48.60
3408;DHT22;1717;50.240;8.406;2023-06-14T02:36:47;17.80;48.60
3408;DHT22;1717;50.240;8.406;2023-06-14T02:39:15;17.80;48.50
3408;DHT22;1717;50.240;8.406;2023-06-14T02:41:43;18.00;48.80
3408;DHT22;1717;50.240;8.406;2023-06-14T02:44:10;17.80;48.60
3408;DHT22;1717;50.240;8.406;2023-06-14T02:46:38;17.80;48.60
3408;DHT22;1717;50.240;8.406;2023-06-14T02:49:06;17.80;48.60
3408;DHT22;1717;50.240;8.406;2023-06-14T02:51:33;17.80;48.60
3408;DHT22;1717;50.240;8.406;2023-06-14T02:54:00;17.80;48.60
3408;DHT22;1717;50.240;8.406;2023-06-14T02:56:27;17.80;48.60
3408;DHT22;1717;50.240;8.406;2023-06-14T02:58:53;17.70;48.60
3408;DHT22;1717;50.240;8.406;2023-06-14T03:01:20;17.80;48.60
3408;DHT22;1717;50.240;8.406;2023-06-14T03:03:48;17.80;48.60
3408;DHT22;1717;50.240;8.406;2023-06-14T03:06:17;17.80;48.50
3408;DHT22;1717;50.240;8.406;2023-06-14T03:08:44;17.80;48.50
3408;DHT22;1717;50.240;8.406;2023-06-14T03:11:11;17.80;48.40
3408;DHT22;1717;50.240;8.406;2023-06-14T03:13:38;17.80;48.40
3408;DHT22;1717;50.240;8.406;2023-06-14T03:16:06;17.80;48.40
3408;DHT22;1717;50.240;8.406;2023-06-14T03:18:34;17.70;48.40
3408;DHT22;1717;50.240;8.406;2023-06-14T03:21:01;17.70;48.50
3408;DHT22;1717;50.240;8.406;2023-06-14T03:23:30;17.70;48.60
3408;DHT22;1717;50.240;8.406;2023-06-14T03:25:57;17.70;48.60
3408;DHT22;1717;50.240;8.406;2023-06-14T03:28:24;17.70;48.60
3408;DHT22;1717;50.240;8.406;2023-06-14T03:30:51;17.70;48.70
3408;DHT22;1717;50.240;8.406;2023-06-14T03:33:18;17.70;48.60
3408;DHT22;1717;50.240;8.406;2023-06-14T03:35:45;17.70;48.60
3408;DHT22;1717;50.240;8.406;2023-06-14T03:38:12;17.70;48.70
3408;DHT22;1717;50.240;8.406;2023-06-14T03:40:40;17.70;48.70
3408;DHT22;1717;50.240;8.406;2023-06-14T03:43:07;17.70;48.70
3408;DHT22;1717;50.240;8.406;2023-06-14T03:45:33;17.60;48.90
3408;DHT22;1717;50.240;8.406;2023-06-14T03:48:00;17.70;48.80
3408;DHT22;1717;50.240;8.406;2023-06-14T03:50:28;17.80;48.80
3408;DHT22;1717;50.240;8.406;2023-06-14T03:52:55;17.80;48.90
3408;DHT22;1717;50.240;8.406;2023-06-14T03:55:22;17.80;49.00
3408;DHT22;1717;50.240;8.406;2023-06-14T03:57:52;17.70;49.00
3408;DHT22;1717;50.240;8.406;2023-06-14T04:00:19;17.70;49.20
3408;DHT22;1717;50.240;8.406;2023-06-14T04:02:46;17.70;49.30
3408;DHT22;1717;50.240;8.406;2023-06-14T04:05:13;17.60;49.50
3408;DHT22;1717;50.240;8.406;2023-06-14T04:07:42;17.60;49.50
3408;DHT22;1717;50.240;8.406;2023-06-14T04:10:11;17.70;49.50
3408;DHT22;1717;50.240;8.406;2023-06-14T04:12:38;17.70;49.40
3408;DHT22;1717;50.240;8.406;2023-06-14T04:15:07;17.70;49.50
3408;DHT22;1717;50.240;8.406;2023-06-14T04:17:36;17.80;49.60
3408;DHT22;1717;50.240;8.406;2023-06-14T04:20:04;17.80;49.40
3408;DHT22;1717;50.240;8.406;2023-06-14T04:22:33;17.80;49.50
3408;DHT22;1717;50.240;8.406;2023-06-14T04:25:00;17.70;49.70
3408;DHT22;1717;50.240;8.406;2023-06-14T04:27:27;17.70;49.80
3408;DHT22;1717;50.240;8.406;2023-06-14T04:29:56;17.70;49.80
3408;DHT22;1717;50.240;8.406;2023-06-14T04:32:26;17.80;49.80
3408;DHT22;1717;50.240;8.406;2023-06-14T04:34:55;17.80;49.70
3408;DHT22;1717;50.240;8.406;2023-06-14T04:37:22;17.80;49.70
3408;DHT22;1717;50.240;8.406;2023-06-14T04:39:50;17.90;49.70
3408;DHT22;1717;50.240;8.406;2023-06-14T04:42:17;17.70;50.00
3408;DHT22;1717;50.240;8.406;2023-06-14T04:44:46;17.80;50.20
3408;DHT22;1717;50.240;8.406;2023-06-14T04:47:14;17.70;50.20
3408;DHT22;1717;50.240;8.406;2023-06-14T04:49:43;17.70;50.20
3408;DHT22;1717;50.240;8.406;2023-06-14T04:52:11;17.80;50.10
3408;DHT22;1717;50.240;8.406;2023-06-14T04:54:38;17.80;50.10
3408;DHT22;1717;50.240;8.406;2023-06-14T04:57:07;17.80;50.30
3408;DHT22;1717;50.240;8.406;2023-06-14T04:59:34;17.80;50.30
3408;DHT22;1717;50.240;8.406;2023-06-14T05:02:02;17.70;50.60
3408;DHT22;1717;50.240;8.406;2023-06-14T05:04:29;17.60;50.70
3408;DHT22;1717;50.240;8.406;2023-06-14T05:06:57;17.70;50.70
3408;DHT22;1717;50.240;8.406;2023-06-14T05:09:24;17.60;51.00
3408;DHT22;1717;50.240;8.406;2023-06-14T05:11:51;17.60;51.10
3408;DHT22;1717;50.240;8.406;2023-06-14T05:14:17;17.60;51.30
3408;DHT22;1717;50.240;8.406;2023-06-14T05:16:44;17.70;51.20
3408;DHT22;1717;50.240;8.406;2023-06-14T05:19:11;17.70;51.30
3408;DHT22;1717;50.240;8.406;2023-06-14T05:21:38;17.70;51.20
3408;DHT22;1717;50.240;8.406;2023-06-14T05:24:07;17.70;51.20
3408;DHT22;1717;50.240;8.406;2023-06-14T05:26:34;17.70;51.30
3408;DHT22;1717;50.240;8.406;2023-06-14T05:29:01;17.80;51.40
3408;DHT22;1717;50.240;8.406;2023-06-14T05:31:28;17.80;51.50
3408;DHT22;1717;50.240;8.406;2023-06-14T05:33:55;17.80;51.60
3408;DHT22;1717;50.240;8.406;2023-06-14T05:36:22;17.80;51.50
3408;DHT22;1717;50.240;8.406;2023-06-14T05:38:49;17.80;51.60
3408;DHT22;1717;50.240;8.406;2023-06-14T05:41:17;17.80;52.00
3408;DHT22;1717;50.240;8.406;2023-06-14T05:43:46;17.70;52.20
3408;DHT22;1717;50.240;8.406;2023-06-14T05:46:13;17.70;52.10
3408;DHT22;1717;50.240;8.406;2023-06-14T05:48:40;17.60;52.20
3408;DHT22;1717;50.240;8.406;2023-06-14T05:51:07;17.70;52.40
3408;DHT22;1717;50.240;8.406;2023-06-14T05:53:34;17.70;52.40
3408;DHT22;1717;50.240;8.406;2023-06-14T05:56:01;17.70;52.80
3408;DHT22;1717;50.240;8.406;2023-06-14T05:58:29;17.70;53.00
3408;DHT22;1717;50.240;8.406;2023-06-14T06:00:56;17.80;52.70
3408;DHT22;1717;50.240;8.406;2023-06-14T06:03:23;18.00;52.70
3408;DHT22;1717;50.240;8.406;2023-06-14T06:05:50;18.00;52.70
3408;DHT22;1717;50.240;8.406;2023-06-14T06:08:17;18.20;52.50
3408;DHT22;1717;50.240;8.406;2023-06-14T06:10:44;18.30;52.40
3408;DHT22;1717;50.240;8.406;2023-06-14T06:13:11;18.40;52.40
3408;DHT22;1717;50.240;8.406;2023-06-14T06:15:39;18.40;52.30
3408;DHT22;1717;50.240;8.406;2023-06-14T06:18:06;18.60;52.10
3408;DHT22;1717;50.240;8.406;2023-06-14T06:20:33;18.60;52.00
3408;DHT22;1717;50.240;8.406;2023-06-14T06:23:01;18.70;51.90
3408;DHT22;1717;50.240;8.406;2023-06-14T06:25:28;18.90;51.80
3408;DHT22;1717;50.240;8.406;2023-06-14T06:27:57;18.90;51.70
3408;DHT22;1717;50.240;8.406;2023-06-14T06:30:25;19.00;51.60
3408;DHT22;1717;50.240;8.406;2023-06-14T06:32:53;19.10;51.40
3408;DHT22;1717;50.240;8.406;2023-06-14T06:35:21;19.20;51.40
3408;DHT22;1717;50.240;8.406;2023-06-14T06:37:48;19.30;51.20
3408;DHT22;1717;50.240;8.406;2023-06-14T06:40:14;19.40;51.20
3408;DHT22;1717;50.240;8.406;2023-06-14T06:42:42;19.50;51.20
3408;DHT22;1717;50.240;8.406;2023-06-14T06:45:09;19.60;50.90
3408;DHT22;1717;50.240;8.406;2023-06-14T06:47:36;19.70;50.80
3408;DHT22;1717;50.240;8.406;2023-06-14T06:50:06;19.80;50.80
3408;DHT22;1717;50.240;8.406;2023-06-14T06:52:33;19.90;50.60
3408;DHT22;1717;50.240;8.406;2023-06-14T06:55:00;20.00;50.40
3408;DHT22;1717;50.240;8.406;2023-06-14T06:57:27;20.10;50.30
3408;DHT22;1717;50.240;8.406;2023-06-14T06:59:54;20.20;50.10
3408;DHT22;1717;50.240;8.406;2023-06-14T07:02:21;20.20;50.10
3408;DHT22;1717;50.240;8.406;2023-06-14T07:04:48;20.30;49.80
3408;DHT22;1717;50.240;8.406;2023-06-14T07:07:17;20.40;49.70
3408;DHT22;1717;50.240;8.406;2023-06-14T07:09:44;20.50;49.60
3408;DHT22;1717;50.240;8.406;2023-06-14T07:12:11;20.50;49.50
3408;DHT22;1717;50.240;8.406;2023-06-14T07:14:38;20.60;49.40
3408;DHT22;1717;50.240;8.406;2023-06-14T07:17:05;20.60;49.20
3408;DHT22;1717;50.240;8.406;2023-06-14T07:19:32;20.70;49.20
3408;DHT22;1717;50.240;8.406;2023-06-14T07:21:59;20.80;49.10
3408;DHT22;1717;50.240;8.406;2023-06-14T07:24:27;20.80;49.00
3408;DHT22;1717;50.240;8.406;2023-06-14T07:26:54;20.90;48.90
3408;DHT22;1717;50.240;8.406;2023-06-14T07:29:22;21.00;48.80
3408;DHT22;1717;50.240;8.406;2023-06-14T07:31:48;21.10;48.60
3408;DHT22;1717;50.240;8.406;2023-06-14T07:34:15;21.20;48.50
3408;DHT22;1717;50.240;8.406;2023-06-14T07:36:43;21.20;48.40
3408;DHT22;1717;50.240;8.406;2023-06-14T07:39:10;21.30;48.20
3408;DHT22;1717;50.240;8.406;2023-06-14T07:41:38;21.30;48.10
3408;DHT22;1717;50.240;8.406;2023-06-14T07:44:05;21.40;48.20
3408;DHT22;1717;50.240;8.406;2023-06-14T07:46:32;21.40;48.10
3408;DHT22;1717;50.240;8.406;2023-06-14T07:49:00;21.50;48.20
3408;DHT22;1717;50.240;8.406;2023-06-14T07:51:27;21.50;48.00
3408;DHT22;1717;50.240;8.406;2023-06-14T07:53:53;21.60;47.90
3408;DHT22;1717;50.240;8.406;2023-06-14T07:56:20;21.60;47.80
3408;DHT22;1717;50.240;8.406;2023-06-14T07:58:50;21.60;47.70
3408;DHT22;1717;50.240;8.406;2023-06-14T08:01:16;21.70;47.80
3408;DHT22;1717;50.240;8.406;2023-06-14T08:03:45;21.70;47.70
3408;DHT22;1717;50.240;8.406;2023-06-14T08:06:12;21.80;47.80
3408;DHT22;1717;50.240;8.406;2023-06-14T08:08:39;21.90;47.60
3408;DHT22;1717;50.240;8.406;2023-06-14T08:11:05;22.00;48.10
3408;DHT22;1717;50.240;8.406;2023-06-14T08:13:32;22.00;47.10
3408;DHT22;1717;50.240;8.406;2023-06-14T08:16:01;22.10;46.90
3408;DHT22;1717;50.240;8.406;2023-06-14T08:18:30;22.10;46.70
3408;DHT22;1717;50.240;8.406;2023-06-14T08:20:57;22.10;46.40
3408;DHT22;1717;50.240;8.406;2023-06-14T08:23:24;22.20;46.40
3408;DHT22;1717;50.240;8.406;2023-06-14T08:25:51;22.30;46.50
3408;DHT22;1717;50.240;8.406;2023-06-14T08:28:18;22.30;46.40
3408;DHT22;1717;50.240;8.406;2023-06-14T08:30:45;22.40;47.10
3408;DHT22;1717;50.240;8.406;2023-06-14T08:33:13;22.40;46.20
3408;DHT22;1717;50.240;8.406;2023-06-14T08:35:40;22.50;45.90
3408;DHT22;1717;50.240;8.406;2023-06-14T08:38:06;22.50;46.20
3408;DHT22;1717;50.240;8.406;2023-06-14T08:40:37;22.50;44.90
3408;DHT22;1717;50.240;8.406;2023-06-14T08:43:04;22.60;44.60
3408;DHT22;1717;50.240;8.406;2023-06-14T08:45:32;22.60;44.50
3408;DHT22;1717;50.240;8.406;2023-06-14T08:47:59;22.70;44.40
3408;DHT22;1717;50.240;8.406;2023-06-14T08:50:28;22.80;44.30
3408;DHT22;1717;50.240;8.406;2023-06-14T08:52:58;22.80;43.90
3408;DHT22;1717;50.240;8.406;2023-06-14T08:55:28;22.80;43.50
3408;DHT22;1717;50.240;8.406;2023-06-14T08:57:56;22.80;43.40
3408;DHT22;1717;50.240;8.406;2023-06-14T09:00:24;22.80;42.50
3408;DHT22;1717;50.240;8.406;2023-06-14T09:02:52;22.90;42.60
3408;DHT22;1717;50.240;8.406;2023-06-14T09:05:23;22.90;42.70
3408;DHT22;1717;50.240;8.406;2023-06-14T09:07:52;22.90;42.90
3408;DHT22;1717;50.240;8.406;2023-06-14T09:10:22;22.90;43.10
3408;DHT22;1717;50.240;8.406;2023-06-14T09:12:51;23.00;43.10
3408;DHT22;1717;50.240;8.406;2023-06-14T09:15:18;23.00;43.30
3408;DHT22;1717;50.240;8.406;2023-06-14T09:17:46;23.10;43.20
3408;DHT22;1717;50.240;8.406;2023-06-14T09:20:12;23.10;43.00
3408;DHT22;1717;50.240;8.406;2023-06-14T09:22:43;23.20;43.00
3408;DHT22;1717;50.240;8.406;2023-06-14T09:25:12;23.20;42.90
3408;DHT22;1717;50.240;8.406;2023-06-14T09:27:40;23.20;42.90
3408;DHT22;1717;50.240;8.406;2023-06-14T09:30:09;23.30;42.90
3408;DHT22;1717;50.240;8.406;2023-06-14T09:32:37;23.20;42.90
3408;DHT22;1717;50.240;8.406;2023-06-14T09:35:05;23.20;42.90
3408;DHT22;1717;50.240;8.406;2023-06-14T09:37:33;23.20;42.90
3408;DHT22;1717;50.240;8.406;2023-06-14T09:40:00;23.10;42.70
3408;DHT22;1717;50.240;8.406;2023-06-14T09:42:29;23.10;42.90
3408;DHT22;1717;50.240;8.406;2023-06-14T09:44:57;23.10;42.90
3408;DHT22;1717;50.240;8.406;2023-06-14T09:47:24;23.10;43.00
3408;DHT22;1717;50.240;8.406;2023-06-14T09:49:51;23.30;43.40
3408;DHT22;1717;50.240;8.406;2023-06-14T09:52:21;23.10;43.30
3408;DHT22;1717;50.240;8.406;2023-06-14T09:54:48;23.20;43.90
3408;DHT22;1717;50.240;8.406;2023-06-14T09:57:16;23.30;43.30
3408;DHT22;1717;50.240;8.406;2023-06-14T09:59:46;23.30;43.10
3408;DHT22;1717;50.240;8.406;2023-06-14T10:02:21;23.40;43.20
3408;DHT22;1717;50.240;8.406;2023-06-14T10:04:56;23.40;42.90
3408;DHT22;1717;50.240;8.406;2023-06-14T10:07:26;23.40;42.90
3408;DHT22;1717;50.240;8.406;2023-06-14T10:09:56;23.50;42.90
3408;DHT22;1717;50.240;8.406;2023-06-14T10:12:23;23.50;42.90
3408;DHT22;1717;50.240;8.406;2023-06-14T10:14:51;23.50;42.70
3408;DHT22;1717;50.240;8.406;2023-06-14T10:17:27;23.50;42.60
3408;DHT22;1717;50.240;8.406;2023-06-14T10:20:06;23.60;42.60
3408;DHT22;1717;50.240;8.406;2023-06-14T10:22:42;23.70;42.40
3408;DHT22;1717;50.240;8.406;2023-06-14T10:25:13;23.70;42.40
3408;DHT22;1717;50.240;8.406;2023-06-14T10:27:52;23.80;42.60
3408;DHT22;1717;50.240;8.406;2023-06-14T10:30:25;23.80;42.70
3408;DHT22;1717;50.240;8.406;2023-06-14T10:33:05;23.90;42.80
3408;DHT22;1717;50.240;8.406;2023-06-14T10:35:32;24.00;42.30
3408;DHT22;1717;50.240;8.406;2023-06-14T10:38:09;24.10;42.20
3408;DHT22;1717;50.240;8.406;2023-06-14T10:40:39;24.20;42.00
3408;DHT22;1717;50.240;8.406;2023-06-14T10:43:22;24.20;42.10
3408;DHT22;1717;50.240;8.406;2023-06-14T10:46:18;24.40;42.10
3408;DHT22;1717;50.240;8.406;2023-06-14T10:48:48;24.50;41.80
3408;DHT22;1717;50.240;8.406;2023-06-14T10:51:17;24.50;41.80
3408;DHT22;1717;50.240;8.406;2023-06-14T10:53:46;24.60;41.30
3408;DHT22;1717;50.240;8.406;2023-06-14T10:56:27;24.70;41.20
3408;DHT22;1717;50.240;8.406;2023-06-14T10:58:54;24.70;41.10
3408;DHT22;1717;50.240;8.406;2023-06-14T11:01:35;24.70;40.90
3408;DHT22;1717;50.240;8.406;2023-06-14T11:04:09;24.70;41.10
3408;DHT22;1717;50.240;8.406;2023-06-14T11:06:46;24.70;41.20
3408;DHT22;1717;50.240;8.406;2023-06-14T11:09:57;24.70;41.30
3408;DHT22;1717;50.240;8.406;2023-06-14T11:12:28;24.80;41.30
3408;DHT22;1717;50.240;8.406;2023-06-14T11:14:58;24.90;41.10
3408;DHT22;1717;50.240;8.406;2023-06-14T11:17:26;24.90;40.90
3408;DHT22;1717;50.240;8.406;2023-06-14T11:20:07;25.00;40.90
3408;DHT22;1717;50.240;8.406;2023-06-14T11:22:41;24.90;41.00
3408;DHT22;1717;50.240;8.406;2023-06-14T11:25:09;25.00;40.80
3408;DHT22;1717;50.240;8.406;2023-06-14T11:27:35;25.00;40.70
3408;DHT22;1717;50.240;8.406;2023-06-14T11:30:03;25.00;40.80
3408;DHT22;1717;50.240;8.406;2023-06-14T11:32:32;24.90;40.50
3408;DHT22;1717;50.240;8.406;2023-06-14T11:34:59;25.00;40.60
3408;DHT22;1717;50.240;8.406;2023-06-14T11:37:27;25.10;40.80
3408;DHT22;1717;50.240;8.406;2023-06-14T11:39:56;25.10;40.40
3408;DHT22;1717;50.240;8.406;2023-06-14T11:42:26;25.10;40.30
3408;DHT22;1717;50.240;8.406;2023-06-14T11:44:53;25.30;40.40
3408;DHT22;1717;50.240;8.406;2023-06-14T11:47:20;25.10;40.30
3408;DHT22;1717;50.240;8.406;2023-06-14T11:49:48;25.20;40.30
3408;DHT22;1717;50.240;8.406;2023-06-14T11:52:16;25.20;40.10
3408;DHT22;1717;50.240;8.406;2023-06-14T11:54:43;25.20;40.30
3408;DHT22;1717;50.240;8.406;2023-06-14T11:57:10;25.20;40.40
3408;DHT22;1717;50.240;8.406;2023-06-14T11:59:40;25.20;40.30
3408;DHT22;1717;50.240;8.406;2023-06-14T12:02:09;25.20;40.30
3408;DHT22;1717;50.240;8.406;2023-06-14T12:04:36;25.20;40.40
3408;DHT22;1717;50.240;8.406;2023-06-14T12:07:11;25.10;40.40
3408;DHT22;1717;50.240;8.406;2023-06-14T12:09:40;25.10;40.50
3408;DHT22;1717;50.240;8.406;2023-06-14T12:12:09;25.10;40.70
3408;DHT22;1717;50.240;8.406;2023-06-14T12:14:36;25.10;40.40
3408;DHT22;1717;50.240;8.406;2023-06-14T12:17:07;25.20;40.60
3408;DHT22;1717;50.240;8.406;2023-06-14T12:19:41;25.20;40.50
3408;DHT22;1717;50.240;8.406;2023-06-14T12:22:11;25.20;40.60
3408;DHT22;1717;50.240;8.406;2023-06-14T12:24:38;25.30;40.40
3408;DHT22;1717;50.240;8.406;2023-06-14T12:27:05;25.40;40.40
3408;DHT22;1717;50.240;8.406;2023-06-14T12:29:32;25.50;40.30
3408;DHT22;1717;50.240;8.406;2023-06-14T12:31:59;25.50;40.00
3408;DHT22;1717;50.240;8.406;2023-06-14T12:34:26;25.60;40.20
3408;DHT22;1717;50.240;8.406;2023-06-14T12:36:53;25.60;40.20
3408;DHT22;1717;50.240;8.406;2023-06-14T12:39:22;25.70;40.10
3408;DHT22;1717;50.240;8.406;2023-06-14T12:41:50;25.70;39.90
3408;DHT22;1717;50.240;8.406;2023-06-14T12:44:17;25.80;39.70
3408;DHT22;1717;50.240;8.406;2023-06-14T12:46:44;25.80;39.50
3408;DHT22;1717;50.240;8.406;2023-06-14T12:49:11;25.90;39.50
3408;DHT22;1717;50.240;8.406;2023-06-14T12:51:38;26.00;39.60
3408;DHT22;1717;50.240;8.406;2023-06-14T12:54:06;26.20;39.40
3408;DHT22;1717;50.240;8.406;2023-06-14T12:56:34;26.40;39.50
3408;DHT22;1717;50.240;8.406;2023-06-14T12:59:01;26.50;39.10
3408;DHT22;1717;50.240;8.406;2023-06-14T13:01:28;26.60;39.10
3408;DHT22;1717;50.240;8.406;2023-06-14T13:03:55;26.60;38.60
3408;DHT22;1717;50.240;8.406;2023-06-14T13:06:22;26.60;38.50
3408;DHT22;1717;50.240;8.406;2023-06-14T13:08:50;26.60;38.20
3408;DHT22;1717;50.240;8.406;2023-06-14T13:11:17;26.60;38.20
3408;DHT22;1717;50.240;8.406;2023-06-14T13:13:45;26.60;38.30
3408;DHT22;1717;50.240;8.406;2023-06-14T13:16:12;26.60;38.20
3408;DHT22;1717;50.240;8.406;2023-06-14T13:18:40;26.70;38.20
3408;DHT22;1717;50.240;8.406;2023-06-14T13:21:07;26.80;37.70
3408;DHT22;1717;50.240;8.406;2023-06-14T13:23:33;26.80;38.10
3408;DHT22;1717;50.240;8.406;2023-06-14T13:26:00;26.80;37.40
3408;DHT22;1717;50.240;8.406;2023-06-14T13:28:27;26.80;37.40
3408;DHT22;1717;50.240;8.406;2023-06-14T13:30:55;26.80;37.50
3408;DHT22;1717;50.240;8.406;2023-06-14T13:33:22;26.80;37.00
3408;DHT22;1717;50.240;8.406;2023-06-14T13:35:49;26.80;36.60
3408;DHT22;1717;50.240;8.406;2023-06-14T13:38:18;26.70;36.90
3408;DHT22;1717;50.240;8.406;2023-06-14T13:40:45;26.70;37.20
3408;DHT22;1717;50.240;8.406;2023-06-14T13:43:12;26.70;37.30
3408;DHT22;1717;50.240;8.406;2023-06-14T13:45:38;26.80;37.30
3408;DHT22;1717;50.240;8.406;2023-06-14T13:48:07;26.80;37.50
3408;DHT22;1717;50.240;8.406;2023-06-14T13:50:34;26.80;37.70
3408;DHT22;1717;50.240;8.406;2023-06-14T13:53:00;26.80;37.80
3408;DHT22;1717;50.240;8.406;2023-06-14T13:55:27;26.80;37.80
3408;DHT22;1717;50.240;8.406;2023-06-14T13:57:54;26.80;38.00
3408;DHT22;1717;50.240;8.406;2023-06-14T14:00:22;26.80;38.10
3408;DHT22;1717;50.240;8.406;2023-06-14T14:02:49;26.80;38.10
3408;DHT22;1717;50.240;8.406;2023-06-14T14:05:17;26.70;38.00
3408;DHT22;1717;50.240;8.406;2023-06-14T14:07:46;26.70;38.10
3408;DHT22;1717;50.240;8.406;2023-06-14T14:10:13;26.70;38.20
3408;DHT22;1717;50.240;8.406;2023-06-14T14:12:40;26.70;38.20
3408;DHT22;1717;50.240;8.406;2023-06-14T14:15:07;26.70;38.10
3408;DHT22;1717;50.240;8.406;2023-06-14T14:17:38;26.70;38.10
3408;DHT22;1717;50.240;8.406;2023-06-14T14:20:06;26.80;37.80
3408;DHT22;1717;50.240;8.406;2023-06-14T14:22:35;26.80;37.60
3408;DHT22;1717;50.240;8.406;2023-06-14T14:25:01;26.80;37.60
3408;DHT22;1717;50.240;8.406;2023-06-14T14:27:28;26.80;37.80
3408;DHT22;1717;50.240;8.406;2023-06-14T14:29:55;26.70;37.80
3408;DHT22;1717;50.240;8.406;2023-06-14T14:32:22;26.60;37.70
3408;DHT22;1717;50.240;8.406;2023-06-14T14:34:49;26.70;37.70
3408;DHT22;1717;50.240;8.406;2023-06-14T14:37:16;26.60;37.60
3408;DHT22;1717;50.240;8.406;2023-06-14T14:39:46;26.60;37.50
3408;DHT22;1717;50.240;8.406;2023-06-14T14:42:13;26.80;37.50
3408;DHT22;1717;50.240;8.406;2023-06-14T14:44:40;26.80;37.30
3408;DHT22;1717;50.240;8.406;2023-06-14T14:47:07;27.00;37.50
3408;DHT22;1717;50.240;8.406;2023-06-14T14:49:34;27.00;37.00
3408;DHT22;1717;50.240;8.406;2023-06-14T14:52:01;27.00;37.10
3408;DHT22;1717;50.240;8.406;2023-06-14T14:54:28;27.10;37.20
3408;DHT22;1717;50.240;8.406;2023-06-14T14:56:56;27.10;37.10
3408;DHT22;1717;50.240;8.406;2023-06-14T14:59:23;27.10;37.10
3408;DHT22;1717;50.240;8.406;2023-06-14T15:01:50;27.00;37.10
3408;DHT22;1717;50.240;8.406;2023-06-14T15:04:17;27.00;37.30
3408;DHT22;1717;50.240;8.406;2023-06-14T15:06:44;26.90;37.40
3408;DHT22;1717;50.240;8.406;2023-06-14T15:09:11;27.00;37.50
3408;DHT22;1717;50.240;8.406;2023-06-14T15:11:38;27.10;37.80
3408;DHT22;1717;50.240;8.406;2023-06-14T15:14:06;27.10;37.80
3408;DHT22;1717;50.240;8.406;2023-06-14T15:16:33;27.20;37.10
3408;DHT22;1717;50.240;8.406;2023-06-14T15:19:00;27.30;37.10
3408;DHT22;1717;50.240;8.406;2023-06-14T15:21:27;27.40;36.70
3408;DHT22;1717;50.240;8.406;2023-06-14T15:23:54;27.40;37.00
3408;DHT22;1717;50.240;8.406;2023-06-14T15:26:21;27.50;36.90
3408;DHT22;1717;50.240;8.406;2023-06-14T15:28:49;27.60;36.90
3408;DHT22;1717;50.240;8.406;2023-06-14T15:31:18;27.60;36.90
3408;DHT22;1717;50.240;8.406;2023-06-14T15:33:45;27.60;37.20
3408;DHT22;1717;50.240;8.406;2023-06-14T15:36:12;27.50;37.20
3408;DHT22;1717;50.240;8.406;2023-06-14T15:38:39;27.50;37.00
3408;DHT22;1717;50.240;8.406;2023-06-14T15:41:05;27.40;37.10
3408;DHT22;1717;50.240;8.406;2023-06-14T15:43:33;27.40;37.30
3408;DHT22;1717;50.240;8.406;2023-06-14T15:46:00;27.30;37.30
3408;DHT22;1717;50.240;8.406;2023-06-14T15:48:28;27.30;37.40
3408;DHT22;1717;50.240;8.406;2023-06-14T15:50:55;27.20;37.40
3408;DHT22;1717;50.240;8.406;2023-06-14T15:53:22;27.20;37.60
3408;DHT22;1717;50.240;8.406;2023-06-14T15:55:49;27.20;37.80
3408;DHT22;1717;50.240;8.406;2023-06-14T15:58:15;27.20;37.90
3408;DHT22;1717;50.240;8.406;2023-06-14T16:00:42;27.30;37.90
3408;DHT22;1717;50.240;8.406;2023-06-14T16:03:09;27.40;37.80
3408;DHT22;1717;50.240;8.406;2023-06-14T16:05:37;27.40;37.60
3408;DHT22;1717;50.240;8.406;2023-06-14T16:08:04;27.40;37.50